Time;durP1;ratioP1;P1;durP2;ratioP2;P2;SDS_P1;SDS_P2;PMS_P1;PMS_P2;Temp;Humidity;BMP_temperature;BMP_pressure;BME280_temperature;BME280_humidity;BME280_pressure;Samples;Min_cycle;Max_cycle;Signal;HPM_P1;HPM_P2
2023/02/25 00:00:20;;;;;;;4.95;1.40;;;11.30;89.60;;;;;;5017732;28;20038;-79
2023/02/25 00:02:46;;;;;;;5.30;1.65;;;11.40;89.60;;;;;;5020421;23;20046;-78
2023/02/25 00:05:12;;;;;;;4.57;1.40;;;11.30;89.60;;;;;;4994820;28;20042;-78
2023/02/25 00:07:39;;;;;;;5.15;1.27;;;11.30;89.60;;;;;;4985345;28;20058;-78
2023/02/25 00:10:05;;;;;;;4.43;1.48;;;11.30;89.60;;;;;;4974881;28;20493;-79
2023/02/25 00:12:31;;;;;;;5.70;1.80;;;11.30;89.50;;;;;;4974808;28;20038;-78
2023/02/25 00:14:56;;;;;;;7.18;1.40;;;11.30;89.60;;;;;;4980084;28;20031;-80
2023/02/25 00:17:22;;;;;;;4.55;1.40;;;11.20;89.50;;;;;;4980493;28;20031;-79
2023/02/25 00:19:47;;;;;;;5.13;1.50;;;11.30;89.60;;;;;;4976762;28;20077;-77
2023/02/25 00:22:13;;;;;;;6.30;1.80;;;11.30;89.60;;;;;;4974005;28;20030;-77
2023/02/25 00:24:38;;;;;;;5.45;1.50;;;11.20;89.50;;;;;;4974074;28;20033;-77
2023/02/25 00:27:04;;;;;;;6.20;1.63;;;11.20;89.50;;;;;;4974572;28;20113;-79
2023/02/25 00:29:30;;;;;;;5.80;1.67;;;11.20;89.50;;;;;;4975926;28;20027;-79
2023/02/25 00:31:55;;;;;;;5.47;1.55;;;11.20;89.50;;;;;;4977021;28;20027;-79
2023/02/25 00:34:21;;;;;;;4.88;1.55;;;11.20;89.40;;;;;;4976130;28;20031;-78
2023/02/25 00:36:47;;;;;;;5.03;1.58;;;11.20;89.50;;;;;;4977139;28;20070;-79
2023/02/25 00:39:12;;;;;;;5.43;1.70;;;11.20;89.50;;;;;;4977482;28;20050;-79
2023/02/25 00:41:38;;;;;;;5.75;1.70;;;11.20;89.60;;;;;;4977235;28;20505;-79
2023/02/25 00:44:04;;;;;;;4.32;1.33;;;11.20;89.60;;;;;;4976720;28;20029;-79
2023/02/25 00:46:31;;;;;;;4.90;1.50;;;11.20;89.50;;;;;;4975674;28;20027;-78
2023/02/25 00:48:57;;;;;;;6.75;1.30;;;11.20;89.50;;;;;;4975241;28;20031;-78
2023/02/25 00:51:26;;;;;;;4.70;1.60;;;11.20;89.50;;;;;;4975986;28;20496;-79
2023/02/25 00:53:55;;;;;;;3.38;1.20;;;11.20;89.40;;;;;;4979447;28;20035;-77
2023/02/25 00:56:21;;;;;;;5.85;1.60;;;11.20;89.50;;;;;;4974901;28;20027;-78
2023/02/25 00:58:49;;;;;;;6.15;1.60;;;11.20;89.50;;;;;;4977578;28;20102;-79
2023/02/25 01:01:27;;;;;;;5.28;1.67;;;11.10;89.40;;;;;;4977176;28;20393;-80
2023/02/25 01:03:55;;;;;;;4.45;1.48;;;11.20;89.40;;;;;;4972408;28;20552;-79
2023/02/25 01:06:21;;;;;;;5.95;1.73;;;11.20;89.50;;;;;;4975644;28;20034;-80
2023/02/25 01:08:47;;;;;;;4.63;1.23;;;11.20;89.40;;;;;;4974253;28;20027;-81
2023/02/25 01:11:19;;;;;;;3.45;1.20;;;11.20;89.40;;;;;;4973963;28;20118;-81
2023/02/25 01:13:49;;;;;;;5.65;1.30;;;11.20;89.50;;;;;;4977416;28;20030;-82
2023/02/25 01:16:17;;;;;;;6.75;1.60;;;11.20;89.40;;;;;;4974981;28;20061;-81
2023/02/25 01:18:43;;;;;;;5.50;1.35;;;11.20;89.40;;;;;;4994818;28;20030;-81
2023/02/25 01:21:24;;;;;;;6.07;1.35;;;11.20;89.40;;;;;;4994647;28;20034;-82
2023/02/25 01:23:56;;;;;;;;;;;11.20;89.30;;;;;;4996314;28;20037;-80
2023/02/25 01:26:22;;;;;;;3.65;1.17;;;11.20;89.40;;;;;;4994848;28;19996;-82
2023/02/25 01:28:47;;;;;;;6.28;1.52;;;11.20;89.90;;;;;;4995746;28;20112;-81
2023/02/25 01:31:17;;;;;;;5.03;1.58;;;11.20;89.30;;;;;;4994263;28;20033;-81
2023/02/25 01:33:43;;;;;;;5.72;1.60;;;11.20;89.40;;;;;;4992523;28;20054;-80
2023/02/25 01:36:09;;;;;;;5.70;1.60;;;11.10;89.30;;;;;;4992819;28;20077;-81
2023/02/25 01:38:34;;;;;;;6.45;1.55;;;11.10;89.30;;;;;;4995556;28;20027;-80
2023/02/25 01:41:01;;;;;;;4.93;1.50;;;11.10;89.20;;;;;;4995921;28;20027;-81
2023/02/25 01:43:27;;;;;;;5.57;1.35;;;11.20;89.30;;;;;;4999212;28;20499;-81
2023/02/25 01:45:54;;;;;;;5.05;1.60;;;11.10;89.30;;;;;;4998860;28;20053;-81
2023/02/25 01:48:35;;;;;;;4.20;1.35;;;11.10;89.20;;;;;;4997569;28;20113;-81
2023/02/25 01:51:02;;;;;;;;;;;11.10;89.20;;;;;;4997912;28;20023;-81
2023/02/25 01:53:41;;;;;;;5.25;1.25;;;11.20;89.30;;;;;;4998554;28;19906;-81
2023/02/25 01:56:10;;;;;;;4.63;1.48;;;11.10;89.20;;;;;;4996756;28;20401;-79
2023/02/25 01:58:36;;;;;;;4.43;1.30;;;11.10;89.10;;;;;;4996951;28;20022;-81
2023/02/25 02:01:02;;;;;;;4.72;1.30;;;11.10;89.10;;;;;;4997352;28;20031;-81
2023/02/25 02:03:33;;;;;;;4.75;1.48;;;11.10;89.10;;;;;;4996405;28;20030;-82
2023/02/25 02:06:08;;;;;;;4.70;1.30;;;11.10;89.10;;;;;;4996569;28;20027;-81
2023/02/25 02:08:35;;;;;;;5.03;1.50;;;11.10;89.10;;;;;;4996618;28;20092;-81
2023/02/25 02:11:01;;;;;;;7.07;1.63;;;11.10;89.10;;;;;;4998022;28;20146;-81
2023/02/25 02:13:28;;;;;;;6.47;1.58;;;11.10;89.00;;;;;;4997568;28;20117;-81
2023/02/25 02:16:09;;;;;;;8.70;1.98;;;11.10;89.00;;;;;;4997162;28;20417;-81
2023/02/25 02:18:35;;;;;;;4.32;1.30;;;11.10;89.00;;;;;;4995293;28;20029;-81
2023/02/25 02:21:21;;;;;;;5.28;1.27;;;11.10;89.00;;;;;;4996311;28;20092;-81
2023/02/25 02:24:16;;;;;;;6.45;1.58;;;11.00;88.90;;;;;;4994964;28;20177;-80
2023/02/25 02:26:52;;;;;;;5.15;1.63;;;11.10;89.00;;;;;;4995872;28;20062;-80
2023/02/25 02:29:45;;;;;;;4.95;1.40;;;11.10;88.90;;;;;;4997274;28;20033;-81
2023/02/25 02:32:11;;;;;;;4.80;1.30;;;11.10;89.00;;;;;;4997138;28;20026;-80
2023/02/25 02:34:47;;;;;;;4.75;1.48;;;11.10;89.00;;;;;;4996831;28;20034;-80
2023/02/25 02:37:24;;;;;;;5.20;1.50;;;11.10;89.00;;;;;;4996775;28;20026;-81
2023/02/25 02:39:54;;;;;;;4.82;1.35;;;11.10;88.90;;;;;;4994689;28;20093;-81
2023/02/25 02:42:58;;;;;;;5.85;1.55;;;11.10;89.00;;;;;;4979264;28;20073;-81
2023/02/25 02:45:33;;;;;;;5.85;1.65;;;11.10;88.90;;;;;;4916572;29;20024;-80
2023/02/25 02:48:02;;;;;;;5.15;1.45;;;11.10;88.90;;;;;;4966748;28;20457;-80
2023/02/25 02:50:38;;;;;;;3.67;1.13;;;11.10;89.00;;;;;;4974725;28;20062;-80
2023/02/25 02:53:21;;;;;;;3.63;1.23;;;11.10;88.90;;;;;;4974057;28;20054;-81
2023/02/25 02:55:51;;;;;;;4.63;1.40;;;11.10;89.00;;;;;;4981115;28;20026;-81
2023/02/25 02:58:26;;;;;;;5.35;1.70;;;11.00;88.90;;;;;;4994541;28;20408;-81
2023/02/25 03:01:02;;;;;;;4.32;1.20;;;11.00;88.80;;;;;;4995223;28;20022;-79
2023/02/25 03:03:37;;;;;;;4.53;1.65;;;11.00;88.90;;;;;;4992955;28;20026;-81
2023/02/25 03:06:24;;;;;;;4.53;1.60;;;11.00;88.90;;;;;;4975573;28;20023;-81
2023/02/25 03:08:55;;;;;;;4.78;1.35;;;11.10;88.90;;;;;;4975682;28;20023;-80
2023/02/25 03:11:21;;;;;;;6.33;1.60;;;11.00;88.80;;;;;;4976339;28;20027;-80
2023/02/25 03:13:46;;;;;;;5.28;1.60;;;11.00;88.90;;;;;;4975930;28;20612;-81
2023/02/25 03:16:21;;;;;;;3.55;1.20;;;11.00;88.80;;;;;;4974669;28;20125;-81
2023/02/25 03:19:12;;;;;;;5.45;1.48;;;11.00;88.80;;;;;;4974620;28;20018;-80
2023/02/25 03:21:42;;;;;;;3.25;1.05;;;11.00;88.80;;;;;;4975892;28;20037;-81
2023/02/25 03:24:14;;;;;;;4.88;1.40;;;11.00;88.70;;;;;;4975580;28;20034;-80
2023/02/25 03:26:43;;;;;;;3.88;1.23;;;11.00;88.70;;;;;;4974387;28;20027;-80
2023/02/25 03:29:16;;;;;;;4.00;1.23;;;11.00;88.80;;;;;;4975780;28;20417;-80
2023/02/25 03:31:55;;;;;;;4.43;1.23;;;11.00;88.80;;;;;;4973919;28;20070;-80
2023/02/25 03:34:26;;;;;;;3.70;1.23;;;11.10;88.80;;;;;;4974057;28;20042;-80
2023/02/25 03:37:08;;;;;;;4.65;1.55;;;11.00;88.80;;;;;;4974234;28;20026;-81
2023/02/25 03:39:40;;;;;;;4.88;1.40;;;11.00;88.80;;;;;;4975392;28;20432;-81
2023/02/25 03:42:11;;;;;;;4.82;1.45;;;11.00;88.70;;;;;;4974092;28;20023;-81
2023/02/25 03:44:45;;;;;;;4.67;1.33;;;11.00;88.70;;;;;;4974878;28;20109;-81
2023/02/25 03:47:12;;;;;;;5.32;1.52;;;11.00;88.70;;;;;;4976649;28;20030;-81
2023/02/25 03:49:54;;;;;;;3.80;1.38;;;11.00;88.70;;;;;;4978590;28;20397;-82
2023/02/25 03:52:23;;;;;;;5.00;1.25;;;11.00;88.70;;;;;;4978738;28;20038;-82
2023/02/25 03:54:54;;;;;;;5.22;1.20;;;11.00;88.70;;;;;;4976817;28;20035;-81
2023/02/25 03:57:24;;;;;;;4.28;1.45;;;11.00;88.60;;;;;;4976719;28;20042;-81
2023/02/25 03:59:55;;;;;;;5.43;1.30;;;11.00;88.50;;;;;;4976696;28;20480;-79
2023/02/25 04:02:23;;;;;;;5.32;1.55;;;11.00;88.60;;;;;;4975939;28;20058;-81
2023/02/25 04:04:49;;;;;;;4.05;1.50;;;11.00;88.50;;;;;;4975867;28;20035;-81
2023/02/25 04:07:14;;;;;;;3.65;1.30;;;11.00;88.20;;;;;;4976049;28;20082;-81
2023/02/25 04:09:40;;;;;;;4.90;1.75;;;11.00;88.40;;;;;;4975164;28;20125;-81
2023/02/25 04:12:06;;;;;;;3.60;1.30;;;11.00;88.60;;;;;;4975141;28;20038;-81
2023/02/25 04:14:32;;;;;;;3.97;1.20;;;11.00;88.50;;;;;;4974879;28;20027;-81
2023/02/25 04:16:57;;;;;;;3.53;1.25;;;11.00;88.70;;;;;;4977294;28;20042;-81
2023/02/25 04:19:23;;;;;;;5.25;1.40;;;11.00;88.50;;;;;;4975389;28;20019;-81
2023/02/25 04:21:48;;;;;;;3.28;1.20;;;11.00;88.50;;;;;;4976242;28;20112;-81
2023/02/25 04:24:14;;;;;;;5.18;1.30;;;11.00;88.60;;;;;;4975147;28;20125;-81
2023/02/25 04:26:39;;;;;;;5.18;1.40;;;11.00;88.50;;;;;;4974768;28;20031;-81
2023/02/25 04:29:05;;;;;;;5.80;1.50;;;11.00;88.60;;;;;;4974908;28;20034;-80
2023/02/25 04:31:31;;;;;;;5.72;1.35;;;11.00;88.60;;;;;;4975017;28;20026;-81
2023/02/25 04:33:57;;;;;;;4.65;1.45;;;11.00;88.40;;;;;;4974194;28;20054;-79
2023/02/25 04:36:25;;;;;;;3.83;1.13;;;10.90;88.10;;;;;;4975052;28;20398;-82
2023/02/25 04:38:51;;;;;;;3.25;1.00;;;11.00;88.40;;;;;;4977635;28;20030;-81
2023/02/25 04:41:16;;;;;;;4.10;1.10;;;11.00;88.10;;;;;;4976193;28;20022;-81
2023/02/25 04:43:44;;;;;;;3.83;1.15;;;11.00;88.10;;;;;;4976080;28;20584;-81
2023/02/25 04:46:10;;;;;;;5.43;1.52;;;11.00;88.30;;;;;;4976014;28;20027;-81
2023/02/25 04:48:36;;;;;;;3.55;1.10;;;11.00;88.10;;;;;;4976751;28;20023;-81
2023/02/25 04:51:02;;;;;;;3.38;1.13;;;11.00;88.20;;;;;;4977215;28;20035;-81
2023/02/25 04:53:27;;;;;;;3.72;1.30;;;11.00;88.40;;;;;;4977351;28;20031;-81
2023/02/25 04:55:53;;;;;;;2.75;1.20;;;11.00;88.20;;;;;;4974861;28;20038;-81
2023/02/25 04:58:18;;;;;;;3.60;1.17;;;11.00;88.20;;;;;;4975082;28;20497;-81
2023/02/25 05:00:48;;;;;;;5.00;1.30;;;11.00;88.20;;;;;;4976873;28;20019;-81
2023/02/25 05:03:14;;;;;;;4.32;1.40;;;10.90;88.00;;;;;;4988908;28;20194;-81
2023/02/25 05:05:40;;;;;;;3.97;1.25;;;10.90;87.80;;;;;;4995643;28;20034;-81
2023/02/25 05:08:05;;;;;;;4.53;1.20;;;10.90;87.80;;;;;;4995693;28;20481;-81
2023/02/25 05:10:31;;;;;;;3.95;1.15;;;10.90;88.20;;;;;;4994218;28;20089;-81
2023/02/25 05:12:56;;;;;;;3.55;1.00;;;10.90;88.00;;;;;;4994231;28;20053;-81
2023/02/25 05:15:22;;;;;;;5.40;1.30;;;10.90;87.90;;;;;;4993818;28;20022;-81
2023/02/25 05:17:48;;;;;;;4.60;1.40;;;11.00;87.90;;;;;;4997036;28;20067;-81
2023/02/25 05:20:13;;;;;;;3.35;1.10;;;10.90;87.90;;;;;;4997752;28;20027;-80
2023/02/25 05:22:40;;;;;;;3.42;1.20;;;10.90;87.90;;;;;;4997856;28;20026;-81
2023/02/25 05:25:07;;;;;;;3.47;1.15;;;10.90;87.90;;;;;;4997368;28;20019;-81
2023/02/25 05:27:33;;;;;;;2.75;1.10;;;10.90;87.80;;;;;;4998955;28;20034;-81
2023/02/25 05:29:59;;;;;;;3.78;1.30;;;10.90;87.80;;;;;;4997497;28;20034;-81
2023/02/25 05:32:25;;;;;;;3.67;1.20;;;10.90;87.90;;;;;;4997672;28;20404;-81
2023/02/25 05:34:50;;;;;;;4.88;0.98;;;10.90;87.80;;;;;;4997054;28;20041;-81
2023/02/25 05:37:15;;;;;;;3.88;1.00;;;10.90;87.80;;;;;;4997429;28;20023;-80
2023/02/25 05:39:41;;;;;;;3.05;1.15;;;10.90;87.90;;;;;;4998235;28;20460;-81
2023/02/25 05:42:06;;;;;;;3.25;1.23;;;10.90;87.80;;;;;;4996742;28;20015;-80
2023/02/25 05:44:32;;;;;;;3.63;1.17;;;10.90;87.80;;;;;;4996173;28;20543;-80
2023/02/25 05:46:57;;;;;;;3.42;1.00;;;10.90;87.80;;;;;;4995376;28;20026;-80
2023/02/25 05:49:23;;;;;;;4.05;1.20;;;11.00;87.70;;;;;;4997184;28;20030;-81
2023/02/25 05:51:49;;;;;;;4.05;1.35;;;11.00;87.80;;;;;;4997849;28;20105;-81
2023/02/25 05:54:15;;;;;;;4.45;1.00;;;10.90;87.70;;;;;;4997668;28;20026;-80
2023/02/25 05:56:41;;;;;;;3.05;1.17;;;10.90;87.70;;;;;;4995512;28;20030;-80
2023/02/25 05:59:06;;;;;;;3.83;1.20;;;10.90;87.70;;;;;;4995225;28;20022;-80
2023/02/25 06:01:32;;;;;;;4.35;1.65;;;10.90;87.80;;;;;;4988661;28;20086;-82
2023/02/25 06:03:58;;;;;;;4.35;1.20;;;10.90;87.70;;;;;;4993398;28;20022;-81
2023/02/25 06:06:26;;;;;;;4.22;1.20;;;10.90;87.60;;;;;;4994660;28;20910;-81
2023/02/25 06:08:51;;;;;;;3.13;1.10;;;10.90;87.60;;;;;;4994458;28;20061;-81
2023/02/25 06:11:21;;;;;;;2.70;0.90;;;10.90;87.80;;;;;;4993060;28;20064;-80
2023/02/25 06:13:49;;;;;;;3.55;1.10;;;10.90;88.20;;;;;;4993854;28;20045;-81
2023/02/25 06:16:15;;;;;;;3.38;1.08;;;10.90;87.70;;;;;;4992428;28;20030;-77
2023/02/25 06:18:40;;;;;;;2.88;1.10;;;10.90;88.40;;;;;;4991873;28;20057;-79
2023/02/25 06:21:08;;;;;;;3.13;0.93;;;10.90;87.70;;;;;;4992782;28;20037;-78
2023/02/25 06:23:35;;;;;;;3.08;1.23;;;10.90;88.10;;;;;;4992416;28;20026;-82
2023/02/25 06:26:01;;;;;;;4.32;1.17;;;10.90;88.20;;;;;;4991607;28;20033;-81
2023/02/25 06:28:27;;;;;;;10.68;1.38;;;10.90;88.10;;;;;;4993860;28;20389;-82
2023/02/25 06:30:52;;;;;;;5.07;1.15;;;10.90;86.90;;;;;;4994349;28;20019;-82
2023/02/25 06:33:18;;;;;;;6.18;1.10;;;10.90;85.20;;;;;;4993185;28;20041;-81
2023/02/25 06:35:43;;;;;;;5.70;1.30;;;10.80;86.00;;;;;;4993156;28;20272;-82
2023/02/25 06:38:09;;;;;;;3.85;1.20;;;10.80;85.90;;;;;;4993815;28;20047;-82
2023/02/25 06:40:36;;;;;;;3.97;1.13;;;10.90;86.50;;;;;;4992765;28;20023;-82
2023/02/25 06:43:01;;;;;;;4.38;1.10;;;10.90;86.70;;;;;;4993779;28;20085;-82
2023/02/25 06:45:27;;;;;;;4.32;1.30;;;10.90;87.00;;;;;;4992545;28;20967;-81
2023/02/25 06:47:52;;;;;;;3.20;0.90;;;10.90;86.40;;;;;;4993351;28;20037;-82
2023/02/25 06:50:19;;;;;;;3.55;1.20;;;10.90;87.20;;;;;;4993362;28;20036;-82
2023/02/25 06:52:44;;;;;;;5.45;1.15;;;10.90;87.00;;;;;;4991456;28;20045;-82
2023/02/25 06:55:10;;;;;;;4.60;1.20;;;10.90;87.20;;;;;;4992038;28;20030;-82
2023/02/25 06:57:36;;;;;;;4.18;1.20;;;10.90;87.40;;;;;;4994109;28;20117;-81
2023/02/25 07:00:04;;;;;;;3.22;1.00;;;10.90;87.00;;;;;;4991781;28;20448;-82
2023/02/25 07:02:30;;;;;;;2.97;1.00;;;10.90;87.10;;;;;;4991236;28;20089;-82
2023/02/25 07:04:55;;;;;;;3.97;0.90;;;10.90;87.20;;;;;;4991457;28;20326;-82
2023/02/25 07:07:22;;;;;;;2.88;1.00;;;10.90;87.00;;;;;;4991392;28;20034;-82
2023/02/25 07:09:48;;;;;;;4.25;1.25;;;10.90;87.00;;;;;;4993507;28;20030;-81
2023/02/25 07:12:13;;;;;;;2.80;1.13;;;10.90;87.30;;;;;;4992373;28;20397;-80
2023/02/25 07:14:39;;;;;;;2.80;0.90;;;10.90;87.40;;;;;;4995934;28;20030;-80
2023/02/25 07:17:05;;;;;;;3.92;1.08;;;10.90;87.50;;;;;;4995219;28;20038;-81
2023/02/25 07:19:30;;;;;;;3.83;1.02;;;10.90;87.50;;;;;;4993142;28;20054;-80
2023/02/25 07:21:56;;;;;;;4.00;1.48;;;10.80;87.20;;;;;;4992965;28;20382;-80
2023/02/25 07:24:22;;;;;;;2.30;0.82;;;10.90;87.40;;;;;;4992227;28;20515;-81
2023/02/25 07:26:48;;;;;;;4.13;0.95;;;10.90;87.50;;;;;;4993240;28;20401;-81
2023/02/25 07:29:13;;;;;;;5.65;1.10;;;10.80;87.30;;;;;;4992499;28;20619;-81
2023/02/25 07:31:39;;;;;;;2.65;0.80;;;10.90;87.30;;;;;;4992492;28;20194;-81
2023/02/25 07:34:05;;;;;;;3.20;1.10;;;10.90;87.30;;;;;;4993656;28;20062;-80
2023/02/25 07:36:36;;;;;;;3.58;0.98;;;10.80;87.10;;;;;;4993396;28;20042;-82
2023/02/25 07:39:05;;;;;;;4.40;1.23;;;10.90;87.10;;;;;;4991316;28;20018;-80
2023/02/25 07:41:31;;;;;;;3.60;1.00;;;10.90;87.20;;;;;;4992280;28;20046;-80
2023/02/25 07:43:56;;;;;;;4.55;1.30;;;10.90;87.20;;;;;;4991127;28;20065;-81
2023/02/25 07:46:22;;;;;;;4.07;1.25;;;11.00;87.20;;;;;;4991308;28;20480;-82
2023/02/25 07:48:48;;;;;;;1.75;0.85;;;11.00;86.70;;;;;;4992951;28;20542;-81
2023/02/25 07:51:17;;;;;;;3.40;1.33;;;11.00;87.20;;;;;;4991945;28;20088;-81
2023/02/25 07:53:43;;;;;;;2.22;0.82;;;10.90;86.90;;;;;;4991439;28;20034;-83
2023/02/25 07:56:09;;;;;;;3.65;1.00;;;11.00;87.10;;;;;;4991324;28;20041;-80
2023/02/25 07:58:35;;;;;;;3.03;0.82;;;11.00;86.90;;;;;;4994080;28;20027;-81
2023/02/25 08:01:07;;;;;;;6.07;1.48;;;11.00;86.90;;;;;;4991777;28;20032;-79
2023/02/25 08:03:32;;;;;;;2.95;0.90;;;11.00;87.00;;;;;;4991929;28;20030;-82
2023/02/25 08:06:01;;;;;;;3.38;1.17;;;11.00;87.20;;;;;;4992562;28;20477;-80
2023/02/25 08:08:27;;;;;;;2.83;1.00;;;10.90;87.10;;;;;;4989657;28;20033;-80
2023/02/25 08:10:52;;;;;;;2.72;1.00;;;10.90;87.00;;;;;;4991936;28;20026;-79
2023/02/25 08:13:18;;;;;;;4.63;1.17;;;10.90;87.00;;;;;;4990215;28;20034;-80
2023/02/25 08:15:43;;;;;;;2.83;1.10;;;10.90;86.90;;;;;;4991143;28;20069;-81
2023/02/25 08:18:10;;;;;;;3.45;1.20;;;11.00;87.10;;;;;;4990768;28;20042;-80
2023/02/25 08:20:36;;;;;;;4.57;1.08;;;11.00;87.00;;;;;;4990147;28;20026;-79
2023/02/25 08:23:02;;;;;;;3.22;1.05;;;11.00;86.90;;;;;;4990659;28;20030;-78
2023/02/25 08:25:28;;;;;;;1.92;1.02;;;11.00;86.60;;;;;;4990606;28;20428;-80
2023/02/25 08:27:53;;;;;;;3.22;1.10;;;11.00;86.80;;;;;;4989947;28;20089;-80
2023/02/25 08:30:22;;;;;;;3.58;1.10;;;11.00;87.00;;;;;;4990568;28;20030;-79
2023/02/25 08:32:47;;;;;;;3.38;1.00;;;11.00;86.90;;;;;;4993612;28;20034;-81
2023/02/25 08:35:13;;;;;;;3.50;1.17;;;11.00;86.60;;;;;;4994264;28;20377;-86
2023/02/25 08:37:39;;;;;;;3.95;1.10;;;11.10;86.70;;;;;;4989228;28;20073;-79
2023/02/25 08:40:09;;;;;;;4.55;1.00;;;11.10;86.60;;;;;;4977707;28;20051;-80
2023/02/25 08:42:35;;;;;;;2.33;0.80;;;11.10;86.60;;;;;;4971322;28;20046;-82
2023/02/25 08:45:00;;;;;;;2.75;1.00;;;11.00;86.60;;;;;;4970694;28;20513;-80
2023/02/25 08:47:26;;;;;;;4.32;1.52;;;11.00;86.70;;;;;;4972589;28;20034;-80
2023/02/25 08:49:51;;;;;;;3.78;1.30;;;11.00;86.70;;;;;;4971081;28;20034;-80
2023/02/25 08:52:17;;;;;;;2.67;0.90;;;11.00;86.70;;;;;;4972298;28;20146;-80
2023/02/25 08:54:42;;;;;;;5.72;1.10;;;11.00;86.60;;;;;;4970106;28;20097;-78
2023/02/25 08:57:08;;;;;;;2.95;1.10;;;10.90;86.40;;;;;;4969017;28;20405;-79
2023/02/25 08:59:34;;;;;;;2.47;0.90;;;11.00;86.50;;;;;;4970922;28;20062;-81
2023/02/25 09:02:01;;;;;;;2.97;0.90;;;11.00;86.30;;;;;;4969594;28;20038;-79
2023/02/25 09:04:27;;;;;;;2.85;0.90;;;11.10;86.20;;;;;;4970173;28;20030;-80
2023/02/25 09:06:53;;;;;;;3.65;0.80;;;11.20;86.00;;;;;;4975848;28;20485;-81
2023/02/25 09:09:19;;;;;;;3.47;1.00;;;11.20;85.80;;;;;;5013766;23;20046;-81
2023/02/25 09:11:47;;;;;;;3.00;1.02;;;11.20;86.20;;;;;;4992351;28;20543;-80
2023/02/25 09:14:14;;;;;;;3.65;1.10;;;11.30;85.70;;;;;;4991429;28;20026;-81
2023/02/25 09:16:39;;;;;;;5.38;1.00;;;11.20;85.40;;;;;;4990931;28;20023;-81
2023/02/25 09:19:05;;;;;;;3.13;0.90;;;11.20;85.30;;;;;;4991937;28;20029;-81
2023/02/25 09:21:31;;;;;;;2.60;0.80;;;11.30;85.30;;;;;;4991213;28;20077;-82
2023/02/25 09:23:58;;;;;;;3.17;0.85;;;11.30;85.40;;;;;;4991007;28;20382;-78
2023/02/25 09:26:24;;;;;;;3.17;1.00;;;11.30;85.40;;;;;;4991324;28;20030;-80
2023/02/25 09:28:49;;;;;;;3.33;1.00;;;11.30;85.40;;;;;;4992176;28;20121;-81
2023/02/25 09:31:16;;;;;;;2.65;0.93;;;11.30;85.40;;;;;;4992350;28;20494;-81
2023/02/25 09:33:42;;;;;;;4.07;1.00;;;11.30;85.40;;;;;;4992301;28;20057;-83
2023/02/25 09:36:11;;;;;;;3.97;1.00;;;11.30;85.00;;;;;;4990908;28;20476;-81
2023/02/25 09:38:38;;;;;;;1.88;0.90;;;11.30;85.00;;;;;;4991131;28;20077;-81
2023/02/25 09:41:32;;;;;;;2.47;0.90;;;11.40;85.10;;;;;;4992242;28;20030;-81
2023/02/25 09:44:07;;;;;;;2.88;0.90;;;11.40;84.90;;;;;;5006904;28;20129;-79
2023/02/25 09:46:36;;;;;;;3.67;0.90;;;11.50;84.80;;;;;;4991069;28;20049;-81
2023/02/25 09:49:12;;;;;;;3.47;0.77;;;11.50;84.70;;;;;;4990945;28;20472;-81
2023/02/25 09:51:44;;;;;;;3.15;0.82;;;11.50;84.40;;;;;;4991112;28;20038;-81
2023/02/25 09:54:33;;;;;;;2.95;0.98;;;11.50;84.30;;;;;;4990817;28;20022;-81
2023/02/25 09:57:03;;;;;;;2.47;0.77;;;11.60;84.30;;;;;;4991002;28;20026;-81
2023/02/25 09:59:29;;;;;;;2.50;0.70;;;11.60;84.30;;;;;;4991162;28;20023;-81
2023/02/25 10:02:31;;;;;;;2.47;0.75;;;11.60;83.90;;;;;;4991355;28;20392;-81
2023/02/25 10:05:02;;;;;;;2.78;0.82;;;11.50;84.10;;;;;;4994427;28;20030;-82
2023/02/25 10:07:34;;;;;;;3.20;0.90;;;11.50;84.10;;;;;;4994564;28;20030;-80
2023/02/25 10:10:22;;;;;;;3.03;0.90;;;11.50;84.20;;;;;;4996087;28;20030;-81
2023/02/25 10:13:09;;;;;;;3.88;0.93;;;11.40;84.30;;;;;;4994373;28;20031;-81
2023/02/25 10:15:49;;;;;;;4.40;1.00;;;11.40;84.20;;;;;;4994575;28;20026;-83
2023/02/25 10:18:32;;;;;;;3.88;1.20;;;11.30;84.30;;;;;;4995372;28;20018;-81
2023/02/25 10:21:18;;;;;;;2.30;0.90;;;11.30;84.20;;;;;;4994309;28;20472;-83
2023/02/25 10:24:19;;;;;;;5.20;0.90;;;11.30;83.90;;;;;;4995470;28;20023;-82
2023/02/25 10:26:49;;;;;;;2.25;0.80;;;11.20;84.00;;;;;;4995482;28;20274;-81
2023/02/25 10:29:28;;;;;;;2.95;0.82;;;11.20;83.80;;;;;;4994206;28;20032;-80
2023/02/25 10:31:59;;;;;;;4.60;0.98;;;11.20;83.40;;;;;;4994251;28;20079;-80
2023/02/25 10:34:27;;;;;;;3.35;1.02;;;11.20;83.90;;;;;;4995345;28;20096;-80
2023/02/25 10:36:58;;;;;;;2.40;1.00;;;11.30;83.60;;;;;;4995056;28;20023;-81
2023/02/25 10:39:26;;;;;;;4.82;1.00;;;11.40;83.40;;;;;;4994071;28;20034;-80
2023/02/25 10:41:51;;;;;;;3.55;0.80;;;11.50;83.00;;;;;;4995164;28;20026;-80
2023/02/25 10:44:17;;;;;;;4.60;1.17;;;11.60;82.90;;;;;;4993711;28;20023;-80
2023/02/25 10:46:47;;;;;;;3.38;0.70;;;11.70;82.70;;;;;;4994027;28;20026;-81
2023/02/25 10:49:24;;;;;;;2.92;0.63;;;11.80;83.30;;;;;;4993864;28;20030;-81
2023/02/25 10:52:13;;;;;;;2.95;0.75;;;11.90;82.10;;;;;;4993733;28;20032;-80
2023/02/25 10:54:48;;;;;;;3.20;0.90;;;11.80;82.30;;;;;;4993743;28;20464;-80
2023/02/25 10:57:41;;;;;;;3.10;0.90;;;11.70;82.20;;;;;;4993588;28;20026;-81
2023/02/25 11:00:28;;;;;;;1.38;0.60;;;11.70;82.40;;;;;;4993755;28;20018;-80
2023/02/25 11:02:57;;;;;;;2.75;0.90;;;11.70;82.50;;;;;;4993423;28;20022;-80
2023/02/25 11:05:37;;;;;;;3.10;0.88;;;11.60;82.50;;;;;;4993644;28;20081;-81
2023/02/25 11:08:07;;;;;;;1.65;0.60;;;11.60;82.60;;;;;;4993617;28;20082;-81
2023/02/25 11:10:33;;;;;;;2.90;0.80;;;11.60;82.70;;;;;;4994196;28;20023;-81
2023/02/25 11:13:02;;;;;;;3.70;1.08;;;11.60;82.00;;;;;;4993335;28;20184;-80
2023/02/25 11:15:35;;;;;;;3.28;1.00;;;11.70;81.80;;;;;;4992358;28;20484;-83
2023/02/25 11:18:21;;;;;;;3.42;0.90;;;11.80;81.50;;;;;;4994086;28;20022;-81
2023/02/25 11:20:53;;;;;;;2.42;0.85;;;11.80;81.30;;;;;;4994398;28;20022;-81
2023/02/25 11:23:26;;;;;;;2.97;0.90;;;11.80;81.60;;;;;;4993144;28;20503;-81
2023/02/25 11:25:52;;;;;;;2.95;0.80;;;11.90;81.50;;;;;;4992995;28;20544;-81
2023/02/25 11:28:38;;;;;;;4.30;0.80;;;11.90;80.90;;;;;;4993270;28;20026;-81
2023/02/25 11:31:20;;;;;;;1.40;0.65;;;11.90;81.10;;;;;;4992973;28;20026;-81
2023/02/25 11:34:14;;;;;;;1.92;0.60;;;11.80;81.40;;;;;;4992911;28;20441;-80
2023/02/25 11:36:42;;;;;;;2.35;0.70;;;11.80;81.40;;;;;;4993008;28;20113;-80
2023/02/25 11:39:19;;;;;;;2.22;0.70;;;11.80;81.20;;;;;;4993028;28;20029;-81
2023/02/25 11:41:47;;;;;;;2.15;0.77;;;11.80;82.00;;;;;;4992957;28;20033;-82
2023/02/25 11:44:21;;;;;;;1.80;0.70;;;11.70;81.20;;;;;;4992716;28;20026;-80
2023/02/25 11:47:24;;;;;;;2.58;0.70;;;11.70;81.20;;;;;;4994147;28;20120;-82
2023/02/25 11:50:01;;;;;;;3.83;0.82;;;11.70;81.10;;;;;;4992623;28;20030;-82
2023/02/25 11:52:40;;;;;;;2.15;0.77;;;11.70;81.30;;;;;;4992980;28;20056;-80
2023/02/25 11:55:23;;;;;;;1.70;0.70;;;11.70;81.10;;;;;;4992468;28;20088;-80
2023/02/25 11:58:13;;;;;;;2.45;0.80;;;11.80;80.80;;;;;;4993537;28;20023;-80
2023/02/25 12:01:20;;;;;;;2.63;0.70;;;11.90;81.30;;;;;;4992505;28;20529;-82
2023/02/25 12:03:51;;;;;;;2.78;0.68;;;12.00;82.30;;;;;;4998145;28;20484;-81
2023/02/25 12:06:40;;;;;;;1.65;0.80;;;12.00;82.00;;;;;;4992296;28;20120;-83
2023/02/25 12:09:38;;;;;;;2.22;0.60;;;12.00;82.20;;;;;;4965702;28;20472;-81
2023/02/25 12:12:38;;;;;;;3.08;0.80;;;12.10;80.10;;;;;;4992140;28;20117;-80
2023/02/25 12:15:30;;;;;;;3.22;0.70;;;12.10;79.70;;;;;;4961000;28;20089;-82
2023/02/25 12:18:30;;;;;;;1.20;0.57;;;12.10;80.00;;;;;;4993017;28;20027;-80
2023/02/25 12:21:39;;;;;;;2.20;0.60;;;12.10;81.20;;;;;;4992154;28;20049;-80
2023/02/25 12:24:45;;;;;;;1.40;0.70;;;12.20;80.40;;;;;;4991885;28;20022;-81
2023/02/25 12:27:37;;;;;;;1.52;0.60;;;12.20;81.80;;;;;;4991968;28;20023;-82
2023/02/25 12:30:21;;;;;;;4.68;0.73;;;12.10;79.50;;;;;;4992171;28;20522;-82
2023/02/25 12:33:08;;;;;;;3.22;0.70;;;12.10;79.60;;;;;;4993098;28;20026;-83
2023/02/25 12:35:42;;;;;;;2.63;0.80;;;12.10;79.20;;;;;;4991562;28;20440;-82
2023/02/25 12:38:32;;;;;;;2.97;0.90;;;12.10;79.00;;;;;;4991629;28;20026;-81
2023/02/25 12:41:16;;;;;;;2.75;0.63;;;12.00;79.00;;;;;;4992124;28;20026;-81
2023/02/25 12:43:54;;;;;;;1.90;0.60;;;12.00;79.20;;;;;;4992790;28;20467;-81
2023/02/25 12:46:48;;;;;;;2.47;0.60;;;12.00;79.40;;;;;;4991677;28;20027;-81
2023/02/25 12:49:28;;;;;;;2.97;0.70;;;12.00;79.60;;;;;;4991640;28;20113;-81
2023/02/25 12:52:27;;;;;;;2.60;0.70;;;12.00;79.40;;;;;;4992414;28;20025;-83
2023/02/25 12:55:08;;;;;;;1.92;0.70;;;11.90;79.40;;;;;;4994609;28;20026;-81
2023/02/25 12:57:59;;;;;;;2.13;0.70;;;11.80;79.40;;;;;;4992389;28;20133;-79
2023/02/25 13:00:41;;;;;;;2.33;0.57;;;11.80;79.60;;;;;;4992397;28;20026;-81
2023/02/25 13:03:25;;;;;;;5.35;0.70;;;11.80;79.90;;;;;;4992089;28;20029;-79
2023/02/25 13:06:12;;;;;;;2.80;0.63;;;11.80;80.00;;;;;;4992159;28;20027;-79
2023/02/25 13:08:53;;;;;;;4.35;0.80;;;11.80;80.40;;;;;;4993174;28;20030;-79